Frogmore, Louisiana
Current Conditions -  °F | °C
As of 2:55 AM on Friday 28 Nov 2014 (Local Time) from KHEZ Reporting Station
Clear Clear  
Wind Chill: 36°   Ceiling: Unl
Heat Index: 36°   Visibility: 10mi
Dew Point: 28°   Wind: 3mph
Humidity: 75%   Direction: 110°ESE
Pressure: 30.43"   Gusts: NA
Location:  31.6488°N, 91.6098°W
Report Text: KHEZ 280855Z AUTO 11003KT 10SM CLR 02/M02 A3043 RMK AO1 57007
Loading
Personal Weather Stations






























Interactive Weather Map New forecast layout! Learn more

10-Day Weather Forecast

Advertisements
Track Severe Weather on mobile